Weather at Albany International Airport

Public forecast

Using degrees Fahrenheit for public forecast. Weather courtesy of forecast.io.

Current aviation weather report (METAR) for Albany International Airport

Retrieved 2020/09/26 16:51 UTC (14 minutes ago):

KALB 261651Z 16011KT 10SM FEW025 FEW250 21/15 A3006 RMK AO2 SLP179 T02110150

Aviation forecast (TAF) for Albany International Airport

Retrieved 2020/09/26 12:34 UTC (5 hours ago):

TAF KALB 261131Z 2612/2712 16004KT 3SM BR BKN006 TEMPO 2612/2614 1/2SM FG VV002 FM261530 17008KT P6SM BKN010 FM261700 17010G17KT P6SM FEW020 BKN050 FM270300 17007KT P6SM SCT015 BKN025 FM270800 17008KT 6SM BR BKN008 OVC012